sensor_id;sensor_type;location;lat;lon;timestamp;temperature;humidity
18888;DHT22;9576;47.792;9.628;2024-03-29T00:01:19;5.90;99.90
18888;DHT22;9576;47.792;9.628;2024-03-29T00:04:20;5.80;99.90
18888;DHT22;9576;47.792;9.628;2024-03-29T00:07:22;5.60;99.90
18888;DHT22;9576;47.792;9.628;2024-03-29T00:10:23;5.60;99.90
18888;DHT22;9576;47.792;9.628;2024-03-29T00:13:24;5.40;99.90
18888;DHT22;9576;47.792;9.628;2024-03-29T00:16:25;5.30;99.90
18888;DHT22;9576;47.792;9.628;2024-03-29T00:19:26;5.20;99.90
18888;DHT22;9576;47.792;9.628;2024-03-29T00:22:29;5.00;99.90
18888;DHT22;9576;47.792;9.628;2024-03-29T00:25:30;4.90;99.90
18888;DHT22;9576;47.792;9.628;2024-03-29T00:28:31;4.70;99.90
18888;DHT22;9576;47.792;9.628;2024-03-29T00:31:32;4.60;99.90
18888;DHT22;9576;47.792;9.628;2024-03-29T00:34:32;4.60;99.90
18888;DHT22;9576;47.792;9.628;2024-03-29T00:37:35;4.50;99.90
18888;DHT22;9576;47.792;9.628;2024-03-29T00:40:36;4.30;99.90
18888;DHT22;9576;47.792;9.628;2024-03-29T00:43:37;4.10;99.90
18888;DHT22;9576;47.792;9.628;2024-03-29T00:46:38;3.80;99.90
18888;DHT22;9576;47.792;9.628;2024-03-29T00:49:39;3.80;99.90
18888;DHT22;9576;47.792;9.628;2024-03-29T00:52:41;3.90;99.90
18888;DHT22;9576;47.792;9.628;2024-03-29T00:55:42;3.90;99.90
18888;DHT22;9576;47.792;9.628;2024-03-29T00:58:43;3.90;99.90
18888;DHT22;9576;47.792;9.628;2024-03-29T01:01:44;3.90;99.90
18888;DHT22;9576;47.792;9.628;2024-03-29T01:04:45;3.80;99.90
18888;DHT22;9576;47.792;9.628;2024-03-29T01:07:47;3.80;99.90
18888;DHT22;9576;47.792;9.628;2024-03-29T01:10:48;3.80;99.90
18888;DHT22;9576;47.792;9.628;2024-03-29T01:13:49;3.80;99.90
18888;DHT22;9576;47.792;9.628;2024-03-29T01:16:50;3.80;99.90
18888;DHT22;9576;47.792;9.628;2024-03-29T01:19:51;3.80;99.90
18888;DHT22;9576;47.792;9.628;2024-03-29T01:22:53;3.70;99.90
18888;DHT22;9576;47.792;9.628;2024-03-29T01:25:54;3.60;99.90
18888;DHT22;9576;47.792;9.628;2024-03-29T01:28:55;3.50;99.90
18888;DHT22;9576;47.792;9.628;2024-03-29T01:31:56;3.60;99.90
18888;DHT22;9576;47.792;9.628;2024-03-29T01:34:57;3.60;99.90
18888;DHT22;9576;47.792;9.628;2024-03-29T01:37:59;3.60;99.90
18888;DHT22;9576;47.792;9.628;2024-03-29T01:41:00;3.60;99.90
18888;DHT22;9576;47.792;9.628;2024-03-29T01:44:01;3.50;99.90
18888;DHT22;9576;47.792;9.628;2024-03-29T01:47:03;3.40;99.90
18888;DHT22;9576;47.792;9.628;2024-03-29T01:50:06;3.40;99.90
18888;DHT22;9576;47.792;9.628;2024-03-29T01:53:09;3.40;99.90
18888;DHT22;9576;47.792;9.628;2024-03-29T01:56:11;3.40;99.90
18888;DHT22;9576;47.792;9.628;2024-03-29T01:59:17;3.50;99.90
18888;DHT22;9576;47.792;9.628;2024-03-29T02:02:20;3.40;99.90
18888;DHT22;9576;47.792;9.628;2024-03-29T02:05:23;3.40;99.90
18888;DHT22;9576;47.792;9.628;2024-03-29T02:08:28;3.40;99.90
18888;DHT22;9576;47.792;9.628;2024-03-29T02:11:30;3.40;99.90
18888;DHT22;9576;47.792;9.628;2024-03-29T02:14:32;3.30;99.90
18888;DHT22;9576;47.792;9.628;2024-03-29T02:17:34;3.20;99.90
18888;DHT22;9576;47.792;9.628;2024-03-29T02:20:36;3.20;99.90
18888;DHT22;9576;47.792;9.628;2024-03-29T02:23:43;3.10;99.90
18888;DHT22;9576;47.792;9.628;2024-03-29T02:26:47;3.20;99.90
18888;DHT22;9576;47.792;9.628;2024-03-29T02:29:49;3.10;99.90
18888;DHT22;9576;47.792;9.628;2024-03-29T02:33:06;3.10;99.90
18888;DHT22;9576;47.792;9.628;2024-03-29T02:36:08;3.10;99.90
18888;DHT22;9576;47.792;9.628;2024-03-29T02:39:11;3.00;99.90
18888;DHT22;9576;47.792;9.628;2024-03-29T02:42:14;3.00;99.90
18888;DHT22;9576;47.792;9.628;2024-03-29T02:45:17;3.00;99.90
18888;DHT22;9576;47.792;9.628;2024-03-29T02:48:19;2.90;99.90
18888;DHT22;9576;47.792;9.628;2024-03-29T02:51:21;2.90;99.90
18888;DHT22;9576;47.792;9.628;2024-03-29T02:54:23;2.90;99.90
18888;DHT22;9576;47.792;9.628;2024-03-29T02:57:26;2.90;99.90
18888;DHT22;9576;47.792;9.628;2024-03-29T03:00:27;2.70;99.90
18888;DHT22;9576;47.792;9.628;2024-03-29T03:03:29;2.60;99.90
18888;DHT22;9576;47.792;9.628;2024-03-29T03:06:29;2.70;99.90
18888;DHT22;9576;47.792;9.628;2024-03-29T03:09:31;2.60;99.90
18888;DHT22;9576;47.792;9.628;2024-03-29T03:12:52;2.50;99.90
18888;DHT22;9576;47.792;9.628;2024-03-29T03:15:54;2.40;99.90
18888;DHT22;9576;47.792;9.628;2024-03-29T03:18:56;2.50;99.90
18888;DHT22;9576;47.792;9.628;2024-03-29T03:21:57;2.50;99.90
18888;DHT22;9576;47.792;9.628;2024-03-29T03:24:58;2.60;99.90
18888;DHT22;9576;47.792;9.628;2024-03-29T03:28:01;2.60;99.90
18888;DHT22;9576;47.792;9.628;2024-03-29T03:31:03;2.60;99.90
18888;DHT22;9576;47.792;9.628;2024-03-29T03:34:05;2.70;99.90
18888;DHT22;9576;47.792;9.628;2024-03-29T03:37:06;2.70;99.90
18888;DHT22;9576;47.792;9.628;2024-03-29T03:40:08;2.60;99.90
18888;DHT22;9576;47.792;9.628;2024-03-29T03:43:11;2.50;99.90
18888;DHT22;9576;47.792;9.628;2024-03-29T03:46:12;2.50;99.90
18888;DHT22;9576;47.792;9.628;2024-03-29T03:49:13;2.40;99.90
18888;DHT22;9576;47.792;9.628;2024-03-29T03:52:15;2.60;99.90
18888;DHT22;9576;47.792;9.628;2024-03-29T03:55:16;2.60;99.90
18888;DHT22;9576;47.792;9.628;2024-03-29T03:58:19;2.70;99.90
18888;DHT22;9576;47.792;9.628;2024-03-29T04:01:21;2.70;99.90
18888;DHT22;9576;47.792;9.628;2024-03-29T04:04:23;2.80;99.90
18888;DHT22;9576;47.792;9.628;2024-03-29T04:07:25;2.80;99.90
18888;DHT22;9576;47.792;9.628;2024-03-29T04:10:26;2.90;99.90
18888;DHT22;9576;47.792;9.628;2024-03-29T04:13:29;3.00;99.90
18888;DHT22;9576;47.792;9.628;2024-03-29T04:16:30;3.00;99.90
18888;DHT22;9576;47.792;9.628;2024-03-29T04:19:32;3.00;99.90
18888;DHT22;9576;47.792;9.628;2024-03-29T04:22:33;3.10;99.90
18888;DHT22;9576;47.792;9.628;2024-03-29T04:25:35;3.10;99.90
18888;DHT22;9576;47.792;9.628;2024-03-29T04:28:38;3.20;99.90
18888;DHT22;9576;47.792;9.628;2024-03-29T04:31:39;3.20;99.90
18888;DHT22;9576;47.792;9.628;2024-03-29T04:34:40;3.10;99.90
18888;DHT22;9576;47.792;9.628;2024-03-29T04:37:42;3.20;99.90
18888;DHT22;9576;47.792;9.628;2024-03-29T04:40:44;3.20;99.90
18888;DHT22;9576;47.792;9.628;2024-03-29T04:43:47;3.30;99.90
18888;DHT22;9576;47.792;9.628;2024-03-29T04:46:50;3.20;99.90
18888;DHT22;9576;47.792;9.628;2024-03-29T04:49:51;3.20;99.90
18888;DHT22;9576;47.792;9.628;2024-03-29T04:52:53;3.20;99.90
18888;DHT22;9576;47.792;9.628;2024-03-29T04:55:55;3.30;99.90
18888;DHT22;9576;47.792;9.628;2024-03-29T04:58:59;3.20;99.90
18888;DHT22;9576;47.792;9.628;2024-03-29T05:02:01;3.20;99.90
18888;DHT22;9576;47.792;9.628;2024-03-29T05:05:04;3.20;99.90
18888;DHT22;9576;47.792;9.628;2024-03-29T05:08:06;3.30;99.90
18888;DHT22;9576;47.792;9.628;2024-03-29T05:11:08;3.40;99.90
18888;DHT22;9576;47.792;9.628;2024-03-29T05:14:13;3.50;99.90
18888;DHT22;9576;47.792;9.628;2024-03-29T05:17:17;3.60;99.90
18888;DHT22;9576;47.792;9.628;2024-03-29T05:20:21;3.60;99.90
18888;DHT22;9576;47.792;9.628;2024-03-29T05:23:23;3.80;99.90
18888;DHT22;9576;47.792;9.628;2024-03-29T05:26:24;3.80;99.90
18888;DHT22;9576;47.792;9.628;2024-03-29T05:29:28;3.80;99.90
18888;DHT22;9576;47.792;9.628;2024-03-29T05:32:30;4.00;99.90
18888;DHT22;9576;47.792;9.628;2024-03-29T05:35:32;3.90;99.90
18888;DHT22;9576;47.792;9.628;2024-03-29T05:38:33;3.90;99.90
18888;DHT22;9576;47.792;9.628;2024-03-29T05:41:35;3.90;99.90
18888;DHT22;9576;47.792;9.628;2024-03-29T05:44:38;4.10;99.90
18888;DHT22;9576;47.792;9.628;2024-03-29T05:47:40;4.30;99.90
18888;DHT22;9576;47.792;9.628;2024-03-29T05:50:42;4.30;99.90
18888;DHT22;9576;47.792;9.628;2024-03-29T05:53:44;4.30;99.90
18888;DHT22;9576;47.792;9.628;2024-03-29T05:56:46;4.40;99.90
18888;DHT22;9576;47.792;9.628;2024-03-29T05:59:49;4.40;99.90
18888;DHT22;9576;47.792;9.628;2024-03-29T06:02:51;4.40;99.90
18888;DHT22;9576;47.792;9.628;2024-03-29T06:05:53;4.50;99.90
18888;DHT22;9576;47.792;9.628;2024-03-29T06:08:54;4.50;99.90
18888;DHT22;9576;47.792;9.628;2024-03-29T06:11:57;4.70;99.90
18888;DHT22;9576;47.792;9.628;2024-03-29T06:15:00;4.80;99.90
18888;DHT22;9576;47.792;9.628;2024-03-29T06:18:19;4.90;99.90
18888;DHT22;9576;47.792;9.628;2024-03-29T06:21:21;5.00;99.90
18888;DHT22;9576;47.792;9.628;2024-03-29T06:24:23;5.10;99.90
18888;DHT22;9576;47.792;9.628;2024-03-29T06:27:25;5.30;99.90
18888;DHT22;9576;47.792;9.628;2024-03-29T06:30:28;5.40;99.90
18888;DHT22;9576;47.792;9.628;2024-03-29T06:33:30;5.50;99.90
18888;DHT22;9576;47.792;9.628;2024-03-29T06:36:32;5.60;99.90
18888;DHT22;9576;47.792;9.628;2024-03-29T06:39:36;5.60;99.90
18888;DHT22;9576;47.792;9.628;2024-03-29T06:42:38;5.60;99.90
18888;DHT22;9576;47.792;9.628;2024-03-29T06:45:42;5.70;99.90
18888;DHT22;9576;47.792;9.628;2024-03-29T06:48:45;5.70;99.90
18888;DHT22;9576;47.792;9.628;2024-03-29T06:51:47;5.70;99.90
18888;DHT22;9576;47.792;9.628;2024-03-29T06:54:49;5.80;99.90
18888;DHT22;9576;47.792;9.628;2024-03-29T06:57:51;6.00;99.90
18888;DHT22;9576;47.792;9.628;2024-03-29T07:00:54;6.10;99.90
18888;DHT22;9576;47.792;9.628;2024-03-29T07:03:56;6.20;99.90
18888;DHT22;9576;47.792;9.628;2024-03-29T07:06:58;6.30;99.90
18888;DHT22;9576;47.792;9.628;2024-03-29T07:10:00;6.40;99.90
18888;DHT22;9576;47.792;9.628;2024-03-29T07:13:03;6.60;99.90
18888;DHT22;9576;47.792;9.628;2024-03-29T07:16:06;6.90;99.90
18888;DHT22;9576;47.792;9.628;2024-03-29T07:19:08;7.00;99.90
18888;DHT22;9576;47.792;9.628;2024-03-29T07:22:13;7.10;99.90
18888;DHT22;9576;47.792;9.628;2024-03-29T07:25:15;7.20;99.90
18888;DHT22;9576;47.792;9.628;2024-03-29T07:28:17;7.30;99.90
18888;DHT22;9576;47.792;9.628;2024-03-29T07:31:20;7.40;99.90
18888;DHT22;9576;47.792;9.628;2024-03-29T07:34:22;7.40;99.90
18888;DHT22;9576;47.792;9.628;2024-03-29T07:37:23;7.50;99.90
18888;DHT22;9576;47.792;9.628;2024-03-29T07:40:25;7.50;99.90
18888;DHT22;9576;47.792;9.628;2024-03-29T07:43:37;7.60;99.90
18888;DHT22;9576;47.792;9.628;2024-03-29T07:46:45;7.70;99.90
18888;DHT22;9576;47.792;9.628;2024-03-29T07:49:48;7.80;99.90
18888;DHT22;9576;47.792;9.628;2024-03-29T07:52:50;7.90;99.90
18888;DHT22;9576;47.792;9.628;2024-03-29T07:55:52;8.00;99.90
18888;DHT22;9576;47.792;9.628;2024-03-29T07:58:54;8.10;99.90
18888;DHT22;9576;47.792;9.628;2024-03-29T08:01:57;8.30;99.90
18888;DHT22;9576;47.792;9.628;2024-03-29T08:04:59;8.30;99.90
18888;DHT22;9576;47.792;9.628;2024-03-29T08:08:01;8.40;99.90
18888;DHT22;9576;47.792;9.628;2024-03-29T08:11:04;8.50;99.90
18888;DHT22;9576;47.792;9.628;2024-03-29T08:14:06;8.60;99.90
18888;DHT22;9576;47.792;9.628;2024-03-29T08:17:09;8.80;99.90
18888;DHT22;9576;47.792;9.628;2024-03-29T08:20:11;9.00;99.90
18888;DHT22;9576;47.792;9.628;2024-03-29T08:23:13;9.40;99.90
18888;DHT22;9576;47.792;9.628;2024-03-29T08:26:15;9.70;99.90
18888;DHT22;9576;47.792;9.628;2024-03-29T08:29:17;9.90;99.90
18888;DHT22;9576;47.792;9.628;2024-03-29T08:32:20;10.20;99.90
18888;DHT22;9576;47.792;9.628;2024-03-29T08:35:22;10.30;99.90
18888;DHT22;9576;47.792;9.628;2024-03-29T08:38:24;10.40;99.90
18888;DHT22;9576;47.792;9.628;2024-03-29T08:41:26;10.60;99.90
18888;DHT22;9576;47.792;9.628;2024-03-29T08:44:28;10.80;99.90
18888;DHT22;9576;47.792;9.628;2024-03-29T08:47:31;10.90;99.90
18888;DHT22;9576;47.792;9.628;2024-03-29T08:50:33;11.10;99.90
18888;DHT22;9576;47.792;9.628;2024-03-29T08:53:35;11.30;99.90
18888;DHT22;9576;47.792;9.628;2024-03-29T08:56:37;11.50;99.90
18888;DHT22;9576;47.792;9.628;2024-03-29T08:59:41;11.60;99.90
18888;DHT22;9576;47.792;9.628;2024-03-29T09:02:46;11.90;99.90
18888;DHT22;9576;47.792;9.628;2024-03-29T09:05:47;12.00;99.90
18888;DHT22;9576;47.792;9.628;2024-03-29T09:08:49;12.10;99.90
18888;DHT22;9576;47.792;9.628;2024-03-29T09:11:51;12.30;99.90
18888;DHT22;9576;47.792;9.628;2024-03-29T09:14:53;12.60;99.90
18888;DHT22;9576;47.792;9.628;2024-03-29T09:17:56;12.80;99.90
18888;DHT22;9576;47.792;9.628;2024-03-29T09:21:02;13.00;99.90
18888;DHT22;9576;47.792;9.628;2024-03-29T09:24:04;13.20;99.90
18888;DHT22;9576;47.792;9.628;2024-03-29T09:27:07;13.40;99.90
18888;DHT22;9576;47.792;9.628;2024-03-29T09:30:11;13.50;99.90
18888;DHT22;9576;47.792;9.628;2024-03-29T09:33:14;13.60;99.90
18888;DHT22;9576;47.792;9.628;2024-03-29T09:36:16;13.80;99.90
18888;DHT22;9576;47.792;9.628;2024-03-29T09:39:18;14.00;99.90
18888;DHT22;9576;47.792;9.628;2024-03-29T09:42:22;14.20;99.90
18888;DHT22;9576;47.792;9.628;2024-03-29T09:45:25;14.40;99.90
18888;DHT22;9576;47.792;9.628;2024-03-29T09:48:29;14.70;99.90
18888;DHT22;9576;47.792;9.628;2024-03-29T09:51:37;14.90;99.90
18888;DHT22;9576;47.792;9.628;2024-03-29T09:54:40;15.00;99.90
18888;DHT22;9576;47.792;9.628;2024-03-29T09:57:42;15.20;99.90
18888;DHT22;9576;47.792;9.628;2024-03-29T10:00:44;15.40;99.90
18888;DHT22;9576;47.792;9.628;2024-03-29T10:03:49;15.50;99.90
18888;DHT22;9576;47.792;9.628;2024-03-29T10:06:51;15.60;99.90
18888;DHT22;9576;47.792;9.628;2024-03-29T10:09:54;15.90;99.90
18888;DHT22;9576;47.792;9.628;2024-03-29T10:12:57;16.20;99.90
18888;DHT22;9576;47.792;9.628;2024-03-29T10:15:59;16.30;99.90
18888;DHT22;9576;47.792;9.628;2024-03-29T10:19:04;16.60;99.90
18888;DHT22;9576;47.792;9.628;2024-03-29T10:22:07;16.80;99.90
18888;DHT22;9576;47.792;9.628;2024-03-29T10:25:09;17.00;99.90
18888;DHT22;9576;47.792;9.628;2024-03-29T10:28:11;17.40;99.90
18888;DHT22;9576;47.792;9.628;2024-03-29T10:31:13;17.50;99.90
18888;DHT22;9576;47.792;9.628;2024-03-29T10:34:18;17.60;99.90
18888;DHT22;9576;47.792;9.628;2024-03-29T10:37:19;17.60;99.90
18888;DHT22;9576;47.792;9.628;2024-03-29T10:40:27;17.80;99.90
18888;DHT22;9576;47.792;9.628;2024-03-29T10:43:30;17.90;99.90
18888;DHT22;9576;47.792;9.628;2024-03-29T10:46:32;17.90;99.90
18888;DHT22;9576;47.792;9.628;2024-03-29T10:49:38;18.00;99.90
18888;DHT22;9576;47.792;9.628;2024-03-29T10:52:43;18.10;99.90
18888;DHT22;9576;47.792;9.628;2024-03-29T10:55:45;18.20;99.90
18888;DHT22;9576;47.792;9.628;2024-03-29T10:58:50;18.30;99.90
18888;DHT22;9576;47.792;9.628;2024-03-29T11:02:00;18.50;99.90
18888;DHT22;9576;47.792;9.628;2024-03-29T11:05:08;18.60;99.90
18888;DHT22;9576;47.792;9.628;2024-03-29T11:08:11;18.70;99.90
18888;DHT22;9576;47.792;9.628;2024-03-29T11:11:13;18.70;99.90
18888;DHT22;9576;47.792;9.628;2024-03-29T11:14:20;18.80;99.90
18888;DHT22;9576;47.792;9.628;2024-03-29T11:17:25;18.80;99.90
18888;DHT22;9576;47.792;9.628;2024-03-29T11:20:29;19.00;99.90
18888;DHT22;9576;47.792;9.628;2024-03-29T11:23:38;19.10;99.90
18888;DHT22;9576;47.792;9.628;2024-03-29T11:26:40;19.30;99.90
18888;DHT22;9576;47.792;9.628;2024-03-29T11:29:43;19.50;99.90
18888;DHT22;9576;47.792;9.628;2024-03-29T11:32:46;19.70;99.90
18888;DHT22;9576;47.792;9.628;2024-03-29T11:35:52;19.70;99.90
18888;DHT22;9576;47.792;9.628;2024-03-29T11:38:55;19.60;99.90
18888;DHT22;9576;47.792;9.628;2024-03-29T11:42:01;19.70;99.90
18888;DHT22;9576;47.792;9.628;2024-03-29T11:45:04;19.80;99.90
18888;DHT22;9576;47.792;9.628;2024-03-29T11:48:07;20.10;99.90
18888;DHT22;9576;47.792;9.628;2024-03-29T11:51:13;20.40;99.90
18888;DHT22;9576;47.792;9.628;2024-03-29T11:54:15;20.70;99.90
18888;DHT22;9576;47.792;9.628;2024-03-29T11:57:17;20.90;99.90
18888;DHT22;9576;47.792;9.628;2024-03-29T12:00:19;21.00;99.90
18888;DHT22;9576;47.792;9.628;2024-03-29T12:03:22;21.20;99.90
18888;DHT22;9576;47.792;9.628;2024-03-29T12:06:25;21.50;99.90
18888;DHT22;9576;47.792;9.628;2024-03-29T12:09:27;21.50;99.90
18888;DHT22;9576;47.792;9.628;2024-03-29T12:12:29;21.30;99.90
18888;DHT22;9576;47.792;9.628;2024-03-29T12:15:36;21.20;99.90
18888;DHT22;9576;47.792;9.628;2024-03-29T12:18:38;21.00;99.90
18888;DHT22;9576;47.792;9.628;2024-03-29T12:21:41;21.00;99.90
18888;DHT22;9576;47.792;9.628;2024-03-29T12:24:43;21.10;99.90
18888;DHT22;9576;47.792;9.628;2024-03-29T12:27:46;21.00;99.90
18888;DHT22;9576;47.792;9.628;2024-03-29T12:30:49;20.90;99.90
18888;DHT22;9576;47.792;9.628;2024-03-29T12:33:52;20.80;99.90
18888;DHT22;9576;47.792;9.628;2024-03-29T12:36:57;20.80;99.90
18888;DHT22;9576;47.792;9.628;2024-03-29T12:39:59;20.60;99.90
18888;DHT22;9576;47.792;9.628;2024-03-29T12:43:04;20.60;99.90
18888;DHT22;9576;47.792;9.628;2024-03-29T12:46:07;20.60;99.90
18888;DHT22;9576;47.792;9.628;2024-03-29T12:49:10;20.50;99.90
18888;DHT22;9576;47.792;9.628;2024-03-29T12:52:14;20.50;99.90
18888;DHT22;9576;47.792;9.628;2024-03-29T12:55:16;20.60;99.90
18888;DHT22;9576;47.792;9.628;2024-03-29T12:58:19;20.60;99.40
18888;DHT22;9576;47.792;9.628;2024-03-29T13:01:22;20.60;99.90
18888;DHT22;9576;47.792;9.628;2024-03-29T13:04:24;20.70;99.90
18888;DHT22;9576;47.792;9.628;2024-03-29T13:07:28;21.10;99.90
18888;DHT22;9576;47.792;9.628;2024-03-29T13:10:30;21.30;99.40
18888;DHT22;9576;47.792;9.628;2024-03-29T13:13:32;21.50;99.10
18888;DHT22;9576;47.792;9.628;2024-03-29T13:16:33;21.70;99.60
18888;DHT22;9576;47.792;9.628;2024-03-29T13:19:35;22.10;98.20
18888;DHT22;9576;47.792;9.628;2024-03-29T13:22:39;22.30;98.60
18888;DHT22;9576;47.792;9.628;2024-03-29T13:25:42;22.30;96.70
18888;DHT22;9576;47.792;9.628;2024-03-29T13:28:44;22.20;98.00
18888;DHT22;9576;47.792;9.628;2024-03-29T13:31:46;22.20;96.80
18888;DHT22;9576;47.792;9.628;2024-03-29T13:34:48;22.20;98.00
18888;DHT22;9576;47.792;9.628;2024-03-29T13:37:52;21.90;97.70
18888;DHT22;9576;47.792;9.628;2024-03-29T13:40:55;21.50;96.80
18888;DHT22;9576;47.792;9.628;2024-03-29T13:43:57;21.40;97.80
18888;DHT22;9576;47.792;9.628;2024-03-29T13:47:00;21.50;96.70
18888;DHT22;9576;47.792;9.628;2024-03-29T13:50:02;21.40;96.60
18888;DHT22;9576;47.792;9.628;2024-03-29T13:53:06;21.30;96.80
18888;DHT22;9576;47.792;9.628;2024-03-29T13:56:08;21.10;96.50
18888;DHT22;9576;47.792;9.628;2024-03-29T13:59:09;21.00;96.50
18888;DHT22;9576;47.792;9.628;2024-03-29T14:02:13;20.90;96.20
18888;DHT22;9576;47.792;9.628;2024-03-29T14:05:15;21.10;97.30
18888;DHT22;9576;47.792;9.628;2024-03-29T14:08:18;21.20;96.70
18888;DHT22;9576;47.792;9.628;2024-03-29T14:11:20;21.20;95.70
18888;DHT22;9576;47.792;9.628;2024-03-29T14:14:22;21.30;95.20
18888;DHT22;9576;47.792;9.628;2024-03-29T14:17:24;21.30;95.50
18888;DHT22;9576;47.792;9.628;2024-03-29T14:20:26;21.30;94.90
18888;DHT22;9576;47.792;9.628;2024-03-29T14:23:31;21.00;95.80
18888;DHT22;9576;47.792;9.628;2024-03-29T14:26:33;20.90;95.80
18888;DHT22;9576;47.792;9.628;2024-03-29T14:29:35;20.70;95.40
18888;DHT22;9576;47.792;9.628;2024-03-29T14:32:37;20.50;95.30
18888;DHT22;9576;47.792;9.628;2024-03-29T14:35:38;20.50;96.00
18888;DHT22;9576;47.792;9.628;2024-03-29T14:38:42;20.40;96.50
18888;DHT22;9576;47.792;9.628;2024-03-29T14:41:44;20.30;96.00
18888;DHT22;9576;47.792;9.628;2024-03-29T14:44:47;20.30;96.30
18888;DHT22;9576;47.792;9.628;2024-03-29T14:47:48;20.20;95.90
18888;DHT22;9576;47.792;9.628;2024-03-29T14:50:50;20.10;95.40
18888;DHT22;9576;47.792;9.628;2024-03-29T14:53:54;20.10;95.60
18888;DHT22;9576;47.792;9.628;2024-03-29T14:56:56;20.00;95.50
18888;DHT22;9576;47.792;9.628;2024-03-29T14:59:58;20.00;94.80
18888;DHT22;9576;47.792;9.628;2024-03-29T15:03:00;19.90;95.80
18888;DHT22;9576;47.792;9.628;2024-03-29T15:06:02;19.80;95.50
18888;DHT22;9576;47.792;9.628;2024-03-29T15:09:05;19.60;95.40
18888;DHT22;9576;47.792;9.628;2024-03-29T15:12:07;19.60;96.40
18888;DHT22;9576;47.792;9.628;2024-03-29T15:15:09;19.50;95.70
18888;DHT22;9576;47.792;9.628;2024-03-29T15:18:11;19.40;95.60
18888;DHT22;9576;47.792;9.628;2024-03-29T15:21:13;19.20;96.10
18888;DHT22;9576;47.792;9.628;2024-03-29T15:24:16;19.20;95.70
18888;DHT22;9576;47.792;9.628;2024-03-29T15:27:18;19.10;96.10
18888;DHT22;9576;47.792;9.628;2024-03-29T15:30:47;19.10;95.60
18888;DHT22;9576;47.792;9.628;2024-03-29T15:33:54;19.00;96.20
18888;DHT22;9576;47.792;9.628;2024-03-29T15:36:55;18.90;95.90
18888;DHT22;9576;47.792;9.628;2024-03-29T15:39:59;18.80;96.30
18888;DHT22;9576;47.792;9.628;2024-03-29T15:43:01;18.80;96.10
18888;DHT22;9576;47.792;9.628;2024-03-29T15:46:04;18.70;96.30
18888;DHT22;9576;47.792;9.628;2024-03-29T15:49:06;18.70;96.40
18888;DHT22;9576;47.792;9.628;2024-03-29T15:52:08;18.70;95.90
18888;DHT22;9576;47.792;9.628;2024-03-29T15:55:11;18.70;96.10
18888;DHT22;9576;47.792;9.628;2024-03-29T15:58:13;18.80;95.40
18888;DHT22;9576;47.792;9.628;2024-03-29T16:01:15;18.70;96.50
18888;DHT22;9576;47.792;9.628;2024-03-29T16:04:17;18.60;96.10
18888;DHT22;9576;47.792;9.628;2024-03-29T16:07:20;18.60;96.10
18888;DHT22;9576;47.792;9.628;2024-03-29T16:10:23;18.60;96.10
18888;DHT22;9576;47.792;9.628;2024-03-29T16:13:26;18.60;95.70
18888;DHT22;9576;47.792;9.628;2024-03-29T16:16:28;18.60;96.60
18888;DHT22;9576;47.792;9.628;2024-03-29T16:19:30;18.50;96.20
18888;DHT22;9576;47.792;9.628;2024-03-29T16:22:31;18.60;96.40
18888;DHT22;9576;47.792;9.628;2024-03-29T16:25:34;18.60;95.90
18888;DHT22;9576;47.792;9.628;2024-03-29T16:28:35;18.60;95.80
18888;DHT22;9576;47.792;9.628;2024-03-29T16:31:37;18.50;95.60
18888;DHT22;9576;47.792;9.628;2024-03-29T16:34:39;18.40;95.70
18888;DHT22;9576;47.792;9.628;2024-03-29T16:37:44;18.50;96.10
18888;DHT22;9576;47.792;9.628;2024-03-29T16:40:46;18.50;95.70
18888;DHT22;9576;47.792;9.628;2024-03-29T16:43:48;18.40;96.00
18888;DHT22;9576;47.792;9.628;2024-03-29T16:46:50;18.40;96.10
18888;DHT22;9576;47.792;9.628;2024-03-29T16:49:51;18.30;96.60
18888;DHT22;9576;47.792;9.628;2024-03-29T16:52:53;18.20;96.80
18888;DHT22;9576;47.792;9.628;2024-03-29T16:55:56;18.10;96.70
18888;DHT22;9576;47.792;9.628;2024-03-29T16:58:57;18.00;96.10
18888;DHT22;9576;47.792;9.628;2024-03-29T17:01:58;18.10;96.30
18888;DHT22;9576;47.792;9.628;2024-03-29T17:05:02;18.00;96.70
18888;DHT22;9576;47.792;9.628;2024-03-29T17:08:04;18.00;96.60
18888;DHT22;9576;47.792;9.628;2024-03-29T17:11:08;17.90;96.80
18888;DHT22;9576;47.792;9.628;2024-03-29T17:14:09;17.80;96.80
18888;DHT22;9576;47.792;9.628;2024-03-29T17:17:11;17.90;95.90
18888;DHT22;9576;47.792;9.628;2024-03-29T17:20:12;17.80;96.60
18888;DHT22;9576;47.792;9.628;2024-03-29T17:23:14;17.80;97.30
18888;DHT22;9576;47.792;9.628;2024-03-29T17:26:16;17.70;96.80
18888;DHT22;9576;47.792;9.628;2024-03-29T17:29:18;17.70;96.80
18888;DHT22;9576;47.792;9.628;2024-03-29T17:32:19;17.70;96.80
18888;DHT22;9576;47.792;9.628;2024-03-29T17:35:21;17.70;97.40
18888;DHT22;9576;47.792;9.628;2024-03-29T17:38:22;17.60;97.20
18888;DHT22;9576;47.792;9.628;2024-03-29T17:41:25;17.50;97.50
18888;DHT22;9576;47.792;9.628;2024-03-29T17:44:26;17.40;97.00
18888;DHT22;9576;47.792;9.628;2024-03-29T17:47:28;17.50;97.10
18888;DHT22;9576;47.792;9.628;2024-03-29T17:50:28;17.50;96.80
18888;DHT22;9576;47.792;9.628;2024-03-29T17:53:30;17.50;97.00
18888;DHT22;9576;47.792;9.628;2024-03-29T17:56:33;17.50;97.00
18888;DHT22;9576;47.792;9.628;2024-03-29T17:59:34;17.50;97.10
18888;DHT22;9576;47.792;9.628;2024-03-29T18:02:35;17.30;97.30
18888;DHT22;9576;47.792;9.628;2024-03-29T18:05:37;17.40;96.90
18888;DHT22;9576;47.792;9.628;2024-03-29T18:08:39;17.50;96.90
18888;DHT22;9576;47.792;9.628;2024-03-29T18:11:43;17.50;96.40
18888;DHT22;9576;47.792;9.628;2024-03-29T18:14:45;17.60;96.40
18888;DHT22;9576;47.792;9.628;2024-03-29T18:17:48;17.50;96.50
18888;DHT22;9576;47.792;9.628;2024-03-29T18:20:50;17.40;96.10
18888;DHT22;9576;47.792;9.628;2024-03-29T18:23:50;17.50;95.80
18888;DHT22;9576;47.792;9.628;2024-03-29T18:26:54;17.40;96.50
18888;DHT22;9576;47.792;9.628;2024-03-29T18:29:55;17.30;96.40
18888;DHT22;9576;47.792;9.628;2024-03-29T18:32:56;17.40;95.90
18888;DHT22;9576;47.792;9.628;2024-03-29T18:35:58;17.40;96.20
18888;DHT22;9576;47.792;9.628;2024-03-29T18:38:59;17.40;96.00
18888;DHT22;9576;47.792;9.628;2024-03-29T18:42:03;17.40;96.30
18888;DHT22;9576;47.792;9.628;2024-03-29T18:45:04;17.40;95.80
18888;DHT22;9576;47.792;9.628;2024-03-29T18:48:06;17.40;96.60
18888;DHT22;9576;47.792;9.628;2024-03-29T18:51:08;17.40;96.30
18888;DHT22;9576;47.792;9.628;2024-03-29T18:54:10;17.40;96.50
18888;DHT22;9576;47.792;9.628;2024-03-29T18:57:13;17.30;95.80
18888;DHT22;9576;47.792;9.628;2024-03-29T19:00:14;17.50;96.00
18888;DHT22;9576;47.792;9.628;2024-03-29T19:03:17;17.50;95.80
18888;DHT22;9576;47.792;9.628;2024-03-29T19:06:18;17.40;96.00
18888;DHT22;9576;47.792;9.628;2024-03-29T19:09:22;17.30;96.00
18888;DHT22;9576;47.792;9.628;2024-03-29T19:12:25;17.30;96.10
18888;DHT22;9576;47.792;9.628;2024-03-29T19:15:27;17.30;96.00
18888;DHT22;9576;47.792;9.628;2024-03-29T19:18:29;17.40;95.90
18888;DHT22;9576;47.792;9.628;2024-03-29T19:21:30;17.40;95.70
18888;DHT22;9576;47.792;9.628;2024-03-29T19:24:35;17.50;95.00
18888;DHT22;9576;47.792;9.628;2024-03-29T19:27:38;17.40;95.10
18888;DHT22;9576;47.792;9.628;2024-03-29T19:30:39;17.40;95.20
18888;DHT22;9576;47.792;9.628;2024-03-29T19:33:41;17.40;95.10
18888;DHT22;9576;47.792;9.628;2024-03-29T19:36:42;17.40;95.10
18888;DHT22;9576;47.792;9.628;2024-03-29T19:39:44;17.60;94.40